createdAt,value
2023-01-28T00:08:11.000Z,-0.1
2023-01-28T00:38:15.000Z,-0.1
2023-01-28T01:08:18.000Z,-0.1
2023-01-28T01:38:20.000Z,-0.2
2023-01-28T02:08:24.000Z,-0.1
2023-01-28T02:38:30.000Z,-0.2
2023-01-28T03:08:34.000Z,-0.1
2023-01-28T03:38:44.000Z,-0.2
2023-01-28T04:08:46.000Z,-0.2
2023-01-28T04:38:48.000Z,-0.1
2023-01-28T05:08:56.000Z,0.0
2023-01-28T05:39:00.000Z,0.0
2023-01-28T06:09:10.000Z,0.0
2023-01-28T06:39:11.000Z,0.0
2023-01-28T07:09:21.000Z,0.0
2023-01-28T07:39:26.000Z,0.1
2023-01-28T08:09:32.000Z,0.4
2023-01-28T08:39:36.000Z,0.6
2023-01-28T09:09:41.000Z,0.9
2023-01-28T09:39:44.000Z,1.1
2023-01-28T10:09:50.000Z,1.4
2023-01-28T10:40:00.000Z,1.7
2023-01-28T11:10:01.000Z,1.9
2023-01-28T11:40:07.000Z,2.3
2023-01-28T12:10:18.000Z,2.2
2023-01-28T12:40:19.000Z,2.2
2023-01-28T13:10:20.000Z,1.8
2023-01-28T13:40:22.000Z,1.7
2023-01-28T14:10:28.000Z,1.8
2023-01-28T14:40:30.000Z,1.7
2023-01-28T15:10:37.000Z,1.5
2023-01-28T15:40:38.000Z,1.4
2023-01-28T16:10:45.000Z,1.3
2023-01-28T16:40:47.000Z,1.2
2023-01-28T17:10:51.000Z,1.1
2023-01-28T17:40:52.000Z,1.1
2023-01-28T18:11:00.000Z,1.0
2023-01-28T18:41:04.000Z,0.9
2023-01-28T19:11:09.000Z,0.9
2023-01-28T19:41:11.000Z,1.0
2023-01-28T20:11:14.000Z,0.9
2023-01-28T20:41:17.000Z,0.8
2023-01-28T21:11:25.000Z,0.7
2023-01-28T21:41:26.000Z,0.6
2023-01-28T22:11:37.000Z,0.5
2023-01-28T22:41:39.000Z,0.4
2023-01-28T23:11:41.000Z,0.2
2023-01-28T23:41:48.000Z,0.2
